sensor_id;sensor_type;location;lat;lon;timestamp;P1;durP1;ratioP1;P2;durP2;ratioP2
16579;SDS011;8402;51.466;6.806;2023-02-04T00:00:09;19.93;;;3.60;;
16579;SDS011;8402;51.466;6.806;2023-02-04T00:02:42;14.43;;;3.07;;
16579;SDS011;8402;51.466;6.806;2023-02-04T00:05:12;25.03;;;3.10;;
16579;SDS011;8402;51.466;6.806;2023-02-04T00:07:42;20.73;;;3.77;;
16579;SDS011;8402;51.466;6.806;2023-02-04T00:10:11;14.93;;;2.93;;
16579;SDS011;8402;51.466;6.806;2023-02-04T00:12:44;20.80;;;3.27;;
16579;SDS011;8402;51.466;6.806;2023-02-04T00:15:14;22.30;;;3.40;;
16579;SDS011;8402;51.466;6.806;2023-02-04T00:17:44;15.03;;;2.83;;
16579;SDS011;8402;51.466;6.806;2023-02-04T00:20:14;24.07;;;3.47;;
16579;SDS011;8402;51.466;6.806;2023-02-04T00:22:45;14.93;;;2.77;;
16579;SDS011;8402;51.466;6.806;2023-02-04T00:25:14;13.73;;;2.57;;
16579;SDS011;8402;51.466;6.806;2023-02-04T00:27:47;23.07;;;3.73;;
16579;SDS011;8402;51.466;6.806;2023-02-04T00:30:17;21.37;;;3.23;;
16579;SDS011;8402;51.466;6.806;2023-02-04T00:32:47;24.37;;;3.07;;
16579;SDS011;8402;51.466;6.806;2023-02-04T00:35:20;18.93;;;3.30;;
16579;SDS011;8402;51.466;6.806;2023-02-04T00:37:50;21.70;;;3.50;;
16579;SDS011;8402;51.466;6.806;2023-02-04T00:40:20;26.77;;;3.67;;
16579;SDS011;8402;51.466;6.806;2023-02-04T00:42:52;20.90;;;3.50;;
16579;SDS011;8402;51.466;6.806;2023-02-04T00:45:22;14.20;;;2.83;;
16579;SDS011;8402;51.466;6.806;2023-02-04T00:47:52;16.80;;;3.07;;
16579;SDS011;8402;51.466;6.806;2023-02-04T00:50:22;21.93;;;3.13;;
16579;SDS011;8402;51.466;6.806;2023-02-04T00:52:52;15.17;;;3.30;;
16579;SDS011;8402;51.466;6.806;2023-02-04T00:55:22;24.77;;;3.33;;
16579;SDS011;8402;51.466;6.806;2023-02-04T00:57:55;24.57;;;4.00;;
16579;SDS011;8402;51.466;6.806;2023-02-04T01:00:25;16.10;;;3.17;;
16579;SDS011;8402;51.466;6.806;2023-02-04T01:02:55;19.03;;;3.83;;
16579;SDS011;8402;51.466;6.806;2023-02-04T01:05:25;21.93;;;3.90;;
16579;SDS011;8402;51.466;6.806;2023-02-04T01:07:55;20.53;;;3.60;;
16579;SDS011;8402;51.466;6.806;2023-02-04T01:10:24;20.47;;;2.43;;
16579;SDS011;8402;51.466;6.806;2023-02-04T01:12:57;25.20;;;4.13;;
16579;SDS011;8402;51.466;6.806;2023-02-04T01:15:27;17.60;;;3.77;;
16579;SDS011;8402;51.466;6.806;2023-02-04T01:17:57;24.30;;;3.83;;
16579;SDS011;8402;51.466;6.806;2023-02-04T01:20:27;17.10;;;2.90;;
16579;SDS011;8402;51.466;6.806;2023-02-04T01:22:57;15.57;;;3.27;;
16579;SDS011;8402;51.466;6.806;2023-02-04T01:25:27;22.67;;;3.40;;
16579;SDS011;8402;51.466;6.806;2023-02-04T01:27:59;20.30;;;3.37;;
16579;SDS011;8402;51.466;6.806;2023-02-04T01:30:29;23.53;;;4.40;;
16579;SDS011;8402;51.466;6.806;2023-02-04T01:32:59;19.43;;;2.43;;
16579;SDS011;8402;51.466;6.806;2023-02-04T01:35:29;20.57;;;4.23;;
16579;SDS011;8402;51.466;6.806;2023-02-04T01:37:59;24.80;;;3.37;;
16579;SDS011;8402;51.466;6.806;2023-02-04T01:40:29;22.20;;;3.53;;
16579;SDS011;8402;51.466;6.806;2023-02-04T01:43:02;26.47;;;3.57;;
16579;SDS011;8402;51.466;6.806;2023-02-04T01:45:32;14.63;;;2.67;;
16579;SDS011;8402;51.466;6.806;2023-02-04T01:48:02;17.63;;;2.90;;
16579;SDS011;8402;51.466;6.806;2023-02-04T01:50:33;18.90;;;2.47;;
16579;SDS011;8402;51.466;6.806;2023-02-04T01:53:03;25.23;;;3.10;;
16579;SDS011;8402;51.466;6.806;2023-02-04T01:55:33;15.33;;;3.03;;
16579;SDS011;8402;51.466;6.806;2023-02-04T01:58:07;18.40;;;2.97;;
16579;SDS011;8402;51.466;6.806;2023-02-04T02:00:38;14.47;;;2.37;;
16579;SDS011;8402;51.466;6.806;2023-02-04T02:03:09;18.97;;;3.10;;
16579;SDS011;8402;51.466;6.806;2023-02-04T02:05:39;23.60;;;2.80;;
16579;SDS011;8402;51.466;6.806;2023-02-04T02:08:12;20.87;;;3.13;;
16579;SDS011;8402;51.466;6.806;2023-02-04T02:10:43;23.17;;;3.30;;
16579;SDS011;8402;51.466;6.806;2023-02-04T02:13:17;24.77;;;3.77;;
16579;SDS011;8402;51.466;6.806;2023-02-04T02:15:48;24.53;;;3.83;;
16579;SDS011;8402;51.466;6.806;2023-02-04T02:18:18;13.93;;;3.00;;
16579;SDS011;8402;51.466;6.806;2023-02-04T02:20:48;19.10;;;3.17;;
16579;SDS011;8402;51.466;6.806;2023-02-04T02:23:19;13.33;;;2.33;;
16579;SDS011;8402;51.466;6.806;2023-02-04T02:25:58;25.90;;;3.20;;
16579;SDS011;8402;51.466;6.806;2023-02-04T02:28:28;17.37;;;2.80;;
16579;SDS011;8402;51.466;6.806;2023-02-04T02:30:58;25.80;;;3.23;;
16579;SDS011;8402;51.466;6.806;2023-02-04T02:33:28;24.93;;;3.07;;
16579;SDS011;8402;51.466;6.806;2023-02-04T02:35:58;32.20;;;3.60;;
16579;SDS011;8402;51.466;6.806;2023-02-04T02:38:29;16.30;;;3.10;;
16579;SDS011;8402;51.466;6.806;2023-02-04T02:41:01;22.77;;;3.03;;
16579;SDS011;8402;51.466;6.806;2023-02-04T02:43:31;27.87;;;3.80;;
16579;SDS011;8402;51.466;6.806;2023-02-04T02:46:01;24.60;;;3.50;;
16579;SDS011;8402;51.466;6.806;2023-02-04T02:48:31;25.83;;;3.33;;
16579;SDS011;8402;51.466;6.806;2023-02-04T02:51:01;13.97;;;2.70;;
16579;SDS011;8402;51.466;6.806;2023-02-04T02:53:32;25.67;;;3.70;;
16579;SDS011;8402;51.466;6.806;2023-02-04T02:56:04;21.93;;;3.67;;
16579;SDS011;8402;51.466;6.806;2023-02-04T02:58:35;18.33;;;3.17;;
16579;SDS011;8402;51.466;6.806;2023-02-04T03:01:05;18.77;;;3.27;;
16579;SDS011;8402;51.466;6.806;2023-02-04T03:03:37;21.90;;;3.47;;
16579;SDS011;8402;51.466;6.806;2023-02-04T03:06:12;21.83;;;3.50;;
16579;SDS011;8402;51.466;6.806;2023-02-04T03:08:45;21.33;;;3.63;;
16579;SDS011;8402;51.466;6.806;2023-02-04T03:11:23;24.80;;;3.10;;
16579;SDS011;8402;51.466;6.806;2023-02-04T03:13:55;23.23;;;3.37;;
16579;SDS011;8402;51.466;6.806;2023-02-04T03:16:27;20.97;;;3.27;;
16579;SDS011;8402;51.466;6.806;2023-02-04T03:19:02;18.87;;;3.13;;
16579;SDS011;8402;51.466;6.806;2023-02-04T03:21:34;21.07;;;3.07;;
16579;SDS011;8402;51.466;6.806;2023-02-04T03:24:05;28.90;;;4.03;;
16579;SDS011;8402;51.466;6.806;2023-02-04T03:26:38;22.77;;;3.00;;
16579;SDS011;8402;51.466;6.806;2023-02-04T03:29:08;24.83;;;2.60;;
16579;SDS011;8402;51.466;6.806;2023-02-04T03:31:38;23.23;;;3.67;;
16579;SDS011;8402;51.466;6.806;2023-02-04T03:34:08;19.20;;;3.47;;
16579;SDS011;8402;51.466;6.806;2023-02-04T03:36:38;20.20;;;2.73;;
16579;SDS011;8402;51.466;6.806;2023-02-04T03:39:08;20.27;;;3.17;;
16579;SDS011;8402;51.466;6.806;2023-02-04T03:41:40;21.27;;;3.47;;
16579;SDS011;8402;51.466;6.806;2023-02-04T03:44:10;33.77;;;3.73;;
16579;SDS011;8402;51.466;6.806;2023-02-04T03:46:40;22.57;;;2.90;;
16579;SDS011;8402;51.466;6.806;2023-02-04T03:49:10;14.50;;;2.70;;
16579;SDS011;8402;51.466;6.806;2023-02-04T03:51:39;26.70;;;3.90;;
16579;SDS011;8402;51.466;6.806;2023-02-04T03:54:09;22.13;;;4.00;;
16579;SDS011;8402;51.466;6.806;2023-02-04T03:56:41;21.07;;;2.90;;
16579;SDS011;8402;51.466;6.806;2023-02-04T03:59:11;19.93;;;2.80;;
16579;SDS011;8402;51.466;6.806;2023-02-04T04:01:41;24.23;;;3.13;;
16579;SDS011;8402;51.466;6.806;2023-02-04T04:04:11;21.37;;;2.83;;
16579;SDS011;8402;51.466;6.806;2023-02-04T04:06:41;28.53;;;3.90;;
16579;SDS011;8402;51.466;6.806;2023-02-04T04:09:10;22.33;;;3.93;;
16579;SDS011;8402;51.466;6.806;2023-02-04T04:11:43;22.63;;;3.20;;
16579;SDS011;8402;51.466;6.806;2023-02-04T04:14:12;32.17;;;4.23;;
16579;SDS011;8402;51.466;6.806;2023-02-04T04:16:42;28.10;;;3.67;;
16579;SDS011;8402;51.466;6.806;2023-02-04T04:19:12;21.10;;;3.70;;
16579;SDS011;8402;51.466;6.806;2023-02-04T04:21:42;20.77;;;3.73;;
16579;SDS011;8402;51.466;6.806;2023-02-04T04:24:12;25.10;;;3.23;;
16579;SDS011;8402;51.466;6.806;2023-02-04T04:26:44;19.33;;;2.57;;
16579;SDS011;8402;51.466;6.806;2023-02-04T04:29:17;28.43;;;4.27;;
16579;SDS011;8402;51.466;6.806;2023-02-04T04:31:47;27.30;;;4.40;;
16579;SDS011;8402;51.466;6.806;2023-02-04T04:34:18;21.47;;;3.53;;
16579;SDS011;8402;51.466;6.806;2023-02-04T04:36:48;23.90;;;3.67;;
16579;SDS011;8402;51.466;6.806;2023-02-04T04:39:17;14.33;;;3.30;;
16579;SDS011;8402;51.466;6.806;2023-02-04T04:41:50;20.03;;;3.50;;
16579;SDS011;8402;51.466;6.806;2023-02-04T04:44:20;28.60;;;4.13;;
16579;SDS011;8402;51.466;6.806;2023-02-04T04:46:49;18.93;;;3.87;;
16579;SDS011;8402;51.466;6.806;2023-02-04T04:49:19;17.57;;;3.67;;
16579;SDS011;8402;51.466;6.806;2023-02-04T04:51:49;20.67;;;3.03;;
16579;SDS011;8402;51.466;6.806;2023-02-04T04:54:19;16.73;;;4.00;;
16579;SDS011;8402;51.466;6.806;2023-02-04T04:56:51;21.43;;;3.17;;
16579;SDS011;8402;51.466;6.806;2023-02-04T04:59:21;23.67;;;3.60;;
16579;SDS011;8402;51.466;6.806;2023-02-04T05:01:51;25.27;;;4.10;;
16579;SDS011;8402;51.466;6.806;2023-02-04T05:04:21;14.63;;;3.57;;
16579;SDS011;8402;51.466;6.806;2023-02-04T05:06:51;24.50;;;3.73;;
16579;SDS011;8402;51.466;6.806;2023-02-04T05:09:20;19.37;;;3.40;;
16579;SDS011;8402;51.466;6.806;2023-02-04T05:11:53;15.97;;;3.93;;
16579;SDS011;8402;51.466;6.806;2023-02-04T05:14:23;17.07;;;3.30;;
16579;SDS011;8402;51.466;6.806;2023-02-04T05:16:52;19.43;;;3.50;;
16579;SDS011;8402;51.466;6.806;2023-02-04T05:19:22;24.13;;;3.83;;
16579;SDS011;8402;51.466;6.806;2023-02-04T05:21:52;16.53;;;3.60;;
16579;SDS011;8402;51.466;6.806;2023-02-04T05:24:22;16.60;;;3.40;;
16579;SDS011;8402;51.466;6.806;2023-02-04T05:26:55;21.50;;;3.77;;
16579;SDS011;8402;51.466;6.806;2023-02-04T05:29:25;21.33;;;3.83;;
16579;SDS011;8402;51.466;6.806;2023-02-04T05:31:55;16.87;;;3.43;;
16579;SDS011;8402;51.466;6.806;2023-02-04T05:34:25;20.80;;;3.33;;
16579;SDS011;8402;51.466;6.806;2023-02-04T05:36:54;24.83;;;4.53;;
16579;SDS011;8402;51.466;6.806;2023-02-04T05:39:24;22.47;;;3.37;;
16579;SDS011;8402;51.466;6.806;2023-02-04T05:41:56;16.10;;;3.00;;
16579;SDS011;8402;51.466;6.806;2023-02-04T05:44:26;21.70;;;3.20;;
16579;SDS011;8402;51.466;6.806;2023-02-04T05:46:56;23.87;;;3.83;;
16579;SDS011;8402;51.466;6.806;2023-02-04T05:49:26;20.90;;;3.40;;
16579;SDS011;8402;51.466;6.806;2023-02-04T05:51:56;18.83;;;3.43;;
16579;SDS011;8402;51.466;6.806;2023-02-04T05:54:26;20.17;;;3.90;;
16579;SDS011;8402;51.466;6.806;2023-02-04T05:56:58;18.70;;;3.20;;
16579;SDS011;8402;51.466;6.806;2023-02-04T05:59:28;18.00;;;2.90;;
16579;SDS011;8402;51.466;6.806;2023-02-04T06:01:58;17.13;;;2.90;;
16579;SDS011;8402;51.466;6.806;2023-02-04T06:04:28;14.93;;;2.60;;
16579;SDS011;8402;51.466;6.806;2023-02-04T06:06:58;21.07;;;3.23;;
16579;SDS011;8402;51.466;6.806;2023-02-04T06:09:28;22.73;;;3.17;;
16579;SDS011;8402;51.466;6.806;2023-02-04T06:12:01;30.20;;;3.23;;
16579;SDS011;8402;51.466;6.806;2023-02-04T06:14:31;17.10;;;2.97;;
16579;SDS011;8402;51.466;6.806;2023-02-04T06:17:01;19.07;;;3.63;;
16579;SDS011;8402;51.466;6.806;2023-02-04T06:19:30;19.80;;;3.07;;
16579;SDS011;8402;51.466;6.806;2023-02-04T06:22:00;18.53;;;2.67;;
16579;SDS011;8402;51.466;6.806;2023-02-04T06:24:30;15.37;;;3.00;;
16579;SDS011;8402;51.466;6.806;2023-02-04T06:27:03;18.60;;;3.13;;
16579;SDS011;8402;51.466;6.806;2023-02-04T06:29:33;15.60;;;3.03;;
16579;SDS011;8402;51.466;6.806;2023-02-04T06:32:03;17.27;;;2.70;;
16579;SDS011;8402;51.466;6.806;2023-02-04T06:34:33;14.27;;;3.10;;
16579;SDS011;8402;51.466;6.806;2023-02-04T06:37:02;14.70;;;3.90;;
16579;SDS011;8402;51.466;6.806;2023-02-04T06:39:32;14.10;;;2.57;;
16579;SDS011;8402;51.466;6.806;2023-02-04T06:42:05;25.67;;;3.63;;
16579;SDS011;8402;51.466;6.806;2023-02-04T06:44:35;17.10;;;3.37;;
16579;SDS011;8402;51.466;6.806;2023-02-04T06:47:04;22.07;;;3.63;;
16579;SDS011;8402;51.466;6.806;2023-02-04T06:49:34;21.07;;;3.20;;
16579;SDS011;8402;51.466;6.806;2023-02-04T06:52:04;16.97;;;3.13;;
16579;SDS011;8402;51.466;6.806;2023-02-04T06:54:34;13.00;;;3.37;;
16579;SDS011;8402;51.466;6.806;2023-02-04T06:57:07;21.03;;;3.80;;
16579;SDS011;8402;51.466;6.806;2023-02-04T06:59:38;38.40;;;3.63;;
16579;SDS011;8402;51.466;6.806;2023-02-04T07:02:09;22.93;;;3.40;;
16579;SDS011;8402;51.466;6.806;2023-02-04T07:04:40;27.63;;;3.27;;
16579;SDS011;8402;51.466;6.806;2023-02-04T07:07:13;26.13;;;4.13;;
16579;SDS011;8402;51.466;6.806;2023-02-04T07:09:43;27.53;;;4.07;;
16579;SDS011;8402;51.466;6.806;2023-02-04T07:12:15;13.80;;;2.50;;
16579;SDS011;8402;51.466;6.806;2023-02-04T07:14:45;24.57;;;3.67;;
16579;SDS011;8402;51.466;6.806;2023-02-04T07:17:15;22.10;;;3.80;;
16579;SDS011;8402;51.466;6.806;2023-02-04T07:19:45;12.47;;;3.43;;
16579;SDS011;8402;51.466;6.806;2023-02-04T07:22:15;24.80;;;3.30;;
16579;SDS011;8402;51.466;6.806;2023-02-04T07:24:45;24.20;;;3.93;;
16579;SDS011;8402;51.466;6.806;2023-02-04T07:27:18;22.83;;;3.73;;
16579;SDS011;8402;51.466;6.806;2023-02-04T07:29:47;26.13;;;3.87;;
16579;SDS011;8402;51.466;6.806;2023-02-04T07:32:17;15.37;;;4.23;;
16579;SDS011;8402;51.466;6.806;2023-02-04T07:34:47;16.63;;;3.50;;
16579;SDS011;8402;51.466;6.806;2023-02-04T07:37:17;15.63;;;3.53;;
16579;SDS011;8402;51.466;6.806;2023-02-04T07:39:48;18.73;;;3.87;;
16579;SDS011;8402;51.466;6.806;2023-02-04T07:42:21;22.60;;;3.73;;
16579;SDS011;8402;51.466;6.806;2023-02-04T07:44:50;30.10;;;3.80;;
16579;SDS011;8402;51.466;6.806;2023-02-04T07:47:20;18.10;;;3.83;;
16579;SDS011;8402;51.466;6.806;2023-02-04T07:49:50;19.70;;;3.50;;
16579;SDS011;8402;51.466;6.806;2023-02-04T07:52:22;14.07;;;3.23;;
16579;SDS011;8402;51.466;6.806;2023-02-04T07:54:53;16.30;;;3.17;;
16579;SDS011;8402;51.466;6.806;2023-02-04T07:57:25;15.40;;;3.30;;
16579;SDS011;8402;51.466;6.806;2023-02-04T07:59:55;26.80;;;3.13;;
16579;SDS011;8402;51.466;6.806;2023-02-04T08:02:25;21.33;;;3.60;;
16579;SDS011;8402;51.466;6.806;2023-02-04T08:04:55;15.80;;;3.10;;
16579;SDS011;8402;51.466;6.806;2023-02-04T08:07:25;16.67;;;3.40;;
16579;SDS011;8402;51.466;6.806;2023-02-04T08:09:55;16.90;;;3.20;;
16579;SDS011;8402;51.466;6.806;2023-02-04T08:12:28;18.33;;;3.43;;
16579;SDS011;8402;51.466;6.806;2023-02-04T08:14:57;22.67;;;3.53;;
16579;SDS011;8402;51.466;6.806;2023-02-04T08:17:27;23.43;;;3.70;;
16579;SDS011;8402;51.466;6.806;2023-02-04T08:19:57;22.90;;;3.80;;
16579;SDS011;8402;51.466;6.806;2023-02-04T08:22:27;19.23;;;4.17;;
16579;SDS011;8402;51.466;6.806;2023-02-04T08:24:57;23.93;;;4.00;;
16579;SDS011;8402;51.466;6.806;2023-02-04T08:27:29;24.17;;;6.00;;
16579;SDS011;8402;51.466;6.806;2023-02-04T08:29:59;26.00;;;4.83;;
16579;SDS011;8402;51.466;6.806;2023-02-04T08:32:29;25.00;;;5.20;;
16579;SDS011;8402;51.466;6.806;2023-02-04T08:34:59;24.50;;;4.90;;
16579;SDS011;8402;51.466;6.806;2023-02-04T08:37:31;25.23;;;5.17;;
16579;SDS011;8402;51.466;6.806;2023-02-04T08:40:01;28.70;;;4.97;;
16579;SDS011;8402;51.466;6.806;2023-02-04T08:42:34;21.30;;;4.53;;
16579;SDS011;8402;51.466;6.806;2023-02-04T08:45:04;32.03;;;4.97;;
16579;SDS011;8402;51.466;6.806;2023-02-04T08:47:35;19.23;;;3.97;;
16579;SDS011;8402;51.466;6.806;2023-02-04T08:50:05;21.83;;;4.37;;
16579;SDS011;8402;51.466;6.806;2023-02-04T08:52:35;21.73;;;3.97;;
16579;SDS011;8402;51.466;6.806;2023-02-04T08:55:06;23.83;;;4.27;;
16579;SDS011;8402;51.466;6.806;2023-02-04T08:57:39;19.17;;;4.17;;
16579;SDS011;8402;51.466;6.806;2023-02-04T09:00:09;25.73;;;4.27;;
16579;SDS011;8402;51.466;6.806;2023-02-04T09:02:40;27.13;;;4.17;;
16579;SDS011;8402;51.466;6.806;2023-02-04T09:05:10;30.63;;;4.60;;
16579;SDS011;8402;51.466;6.806;2023-02-04T09:07:40;22.50;;;3.90;;
16579;SDS011;8402;51.466;6.806;2023-02-04T09:10:10;25.80;;;4.20;;
16579;SDS011;8402;51.466;6.806;2023-02-04T09:12:42;23.80;;;3.93;;
16579;SDS011;8402;51.466;6.806;2023-02-04T09:15:13;20.03;;;3.97;;
16579;SDS011;8402;51.466;6.806;2023-02-04T09:17:43;23.93;;;4.07;;
16579;SDS011;8402;51.466;6.806;2023-02-04T09:20:13;21.13;;;4.10;;
16579;SDS011;8402;51.466;6.806;2023-02-04T09:22:43;25.17;;;4.83;;
16579;SDS011;8402;51.466;6.806;2023-02-04T09:25:13;24.53;;;4.40;;
16579;SDS011;8402;51.466;6.806;2023-02-04T09:27:45;26.87;;;4.50;;
16579;SDS011;8402;51.466;6.806;2023-02-04T09:30:16;29.47;;;5.07;;
16579;SDS011;8402;51.466;6.806;2023-02-04T09:32:46;35.67;;;5.13;;
16579;SDS011;8402;51.466;6.806;2023-02-04T09:35:16;21.23;;;4.77;;
16579;SDS011;8402;51.466;6.806;2023-02-04T09:37:45;31.77;;;5.07;;
16579;SDS011;8402;51.466;6.806;2023-02-04T09:40:16;26.80;;;3.57;;
16579;SDS011;8402;51.466;6.806;2023-02-04T09:42:49;21.53;;;3.57;;
16579;SDS011;8402;51.466;6.806;2023-02-04T09:45:21;35.20;;;3.97;;
16579;SDS011;8402;51.466;6.806;2023-02-04T09:47:53;25.37;;;4.13;;
16579;SDS011;8402;51.466;6.806;2023-02-04T09:50:26;27.37;;;4.13;;
16579;SDS011;8402;51.466;6.806;2023-02-04T09:52:59;23.10;;;3.97;;
16579;SDS011;8402;51.466;6.806;2023-02-04T09:55:32;22.37;;;4.33;;
16579;SDS011;8402;51.466;6.806;2023-02-04T09:58:07;26.77;;;4.10;;
16579;SDS011;8402;51.466;6.806;2023-02-04T10:00:42;26.47;;;4.43;;
16579;SDS011;8402;51.466;6.806;2023-02-04T10:03:13;19.07;;;3.97;;
16579;SDS011;8402;51.466;6.806;2023-02-04T10:05:46;29.27;;;4.57;;
16579;SDS011;8402;51.466;6.806;2023-02-04T10:08:17;21.07;;;3.87;;
16579;SDS011;8402;51.466;6.806;2023-02-04T10:10:49;25.57;;;4.00;;
16579;SDS011;8402;51.466;6.806;2023-02-04T10:13:22;33.67;;;4.00;;
16579;SDS011;8402;51.466;6.806;2023-02-04T10:15:58;28.57;;;4.23;;
16579;SDS011;8402;51.466;6.806;2023-02-04T10:18:30;20.53;;;3.50;;
16579;SDS011;8402;51.466;6.806;2023-02-04T10:21:07;25.30;;;3.60;;
16579;SDS011;8402;51.466;6.806;2023-02-04T10:23:43;26.40;;;3.43;;
16579;SDS011;8402;51.466;6.806;2023-02-04T10:26:16;22.50;;;3.53;;
16579;SDS011;8402;51.466;6.806;2023-02-04T10:28:48;29.67;;;4.27;;
16579;SDS011;8402;51.466;6.806;2023-02-04T10:31:26;28.17;;;3.70;;
16579;SDS011;8402;51.466;6.806;2023-02-04T10:34:06;21.47;;;4.00;;
16579;SDS011;8402;51.466;6.806;2023-02-04T10:36:41;22.47;;;4.47;;
16579;SDS011;8402;51.466;6.806;2023-02-04T10:39:14;21.47;;;5.50;;
16579;SDS011;8402;51.466;6.806;2023-02-04T10:41:48;25.60;;;5.53;;
16579;SDS011;8402;51.466;6.806;2023-02-04T10:44:24;28.70;;;5.00;;
16579;SDS011;8402;51.466;6.806;2023-02-04T10:46:58;26.43;;;6.17;;
16579;SDS011;8402;51.466;6.806;2023-02-04T10:49:29;27.60;;;5.43;;
16579;SDS011;8402;51.466;6.806;2023-02-04T10:51:59;31.67;;;6.80;;
16579;SDS011;8402;51.466;6.806;2023-02-04T10:54:32;31.43;;;8.57;;
16579;SDS011;8402;51.466;6.806;2023-02-04T10:57:07;36.90;;;9.73;;
16579;SDS011;8402;51.466;6.806;2023-02-04T10:59:50;46.50;;;13.10;;
16579;SDS011;8402;51.466;6.806;2023-02-04T11:02:30;55.47;;;15.63;;
16579;SDS011;8402;51.466;6.806;2023-02-04T11:05:10;50.73;;;15.73;;
16579;SDS011;8402;51.466;6.806;2023-02-04T11:07:43;54.93;;;17.53;;
16579;SDS011;8402;51.466;6.806;2023-02-04T11:10:15;56.00;;;18.10;;
16579;SDS011;8402;51.466;6.806;2023-02-04T11:12:57;52.80;;;16.70;;
16579;SDS011;8402;51.466;6.806;2023-02-04T11:15:39;58.33;;;18.73;;
16579;SDS011;8402;51.466;6.806;2023-02-04T11:18:26;56.80;;;17.97;;
16579;SDS011;8402;51.466;6.806;2023-02-04T11:20:58;68.00;;;20.33;;
16579;SDS011;8402;51.466;6.806;2023-02-04T11:23:29;52.17;;;18.07;;
16579;SDS011;8402;51.466;6.806;2023-02-04T11:26:07;61.97;;;18.40;;
16579;SDS011;8402;51.466;6.806;2023-02-04T11:31:43;58.17;;;18.43;;
16579;SDS011;8402;51.466;6.806;2023-02-04T11:34:28;52.70;;;17.87;;
16579;SDS011;8402;51.466;6.806;2023-02-04T11:37:03;53.00;;;16.53;;
16579;SDS011;8402;51.466;6.806;2023-02-04T11:39:40;48.67;;;15.67;;
16579;SDS011;8402;51.466;6.806;2023-02-04T11:42:16;39.27;;;13.93;;
16579;SDS011;8402;51.466;6.806;2023-02-04T11:44:49;55.70;;;16.57;;
16579;SDS011;8402;51.466;6.806;2023-02-04T11:47:24;56.03;;;16.77;;
16579;SDS011;8402;51.466;6.806;2023-02-04T11:49:56;56.87;;;15.87;;
16579;SDS011;8402;51.466;6.806;2023-02-04T11:52:29;43.47;;;15.30;;
16579;SDS011;8402;51.466;6.806;2023-02-04T11:55:03;48.37;;;16.37;;
16579;SDS011;8402;51.466;6.806;2023-02-04T11:57:37;49.33;;;14.40;;
16579;SDS011;8402;51.466;6.806;2023-02-04T12:00:11;47.33;;;15.00;;
16579;SDS011;8402;51.466;6.806;2023-02-04T12:02:46;42.20;;;14.23;;
16579;SDS011;8402;51.466;6.806;2023-02-04T12:05:18;46.50;;;15.93;;
16579;SDS011;8402;51.466;6.806;2023-02-04T12:07:48;54.07;;;16.77;;
16579;SDS011;8402;51.466;6.806;2023-02-04T12:10:22;53.47;;;16.37;;
16579;SDS011;8402;51.466;6.806;2023-02-04T12:12:54;53.80;;;17.37;;
16579;SDS011;8402;51.466;6.806;2023-02-04T12:15:29;50.87;;;15.77;;
16579;SDS011;8402;51.466;6.806;2023-02-04T12:18:05;46.87;;;15.13;;
16579;SDS011;8402;51.466;6.806;2023-02-04T12:20:37;50.43;;;15.23;;
16579;SDS011;8402;51.466;6.806;2023-02-04T12:23:07;42.07;;;12.93;;
16579;SDS011;8402;51.466;6.806;2023-02-04T12:25:37;42.00;;;12.27;;
16579;SDS011;8402;51.466;6.806;2023-02-04T12:28:07;40.37;;;11.33;;
16579;SDS011;8402;51.466;6.806;2023-02-04T12:30:37;36.30;;;12.83;;
16579;SDS011;8402;51.466;6.806;2023-02-04T12:33:09;38.47;;;12.27;;
16579;SDS011;8402;51.466;6.806;2023-02-04T12:35:40;35.57;;;10.40;;
16579;SDS011;8402;51.466;6.806;2023-02-04T12:38:10;39.97;;;10.57;;
16579;SDS011;8402;51.466;6.806;2023-02-04T12:40:40;35.47;;;11.30;;
16579;SDS011;8402;51.466;6.806;2023-02-04T12:43:10;36.37;;;10.63;;
16579;SDS011;8402;51.466;6.806;2023-02-04T12:45:40;39.43;;;10.30;;
16579;SDS011;8402;51.466;6.806;2023-02-04T12:48:14;35.63;;;9.30;;
16579;SDS011;8402;51.466;6.806;2023-02-04T12:50:44;38.17;;;9.47;;
16579;SDS011;8402;51.466;6.806;2023-02-04T12:53:14;40.73;;;9.27;;
16579;SDS011;8402;51.466;6.806;2023-02-04T12:55:45;35.80;;;9.00;;
16579;SDS011;8402;51.466;6.806;2023-02-04T12:58:15;40.60;;;11.83;;
16579;SDS011;8402;51.466;6.806;2023-02-04T13:00:44;36.90;;;8.97;;
16579;SDS011;8402;51.466;6.806;2023-02-04T13:03:17;32.13;;;7.20;;
16579;SDS011;8402;51.466;6.806;2023-02-04T13:05:48;27.27;;;7.03;;
16579;SDS011;8402;51.466;6.806;2023-02-04T13:08:18;26.17;;;6.90;;
16579;SDS011;8402;51.466;6.806;2023-02-04T13:10:48;27.10;;;6.10;;
16579;SDS011;8402;51.466;6.806;2023-02-04T13:13:18;26.70;;;5.73;;
16579;SDS011;8402;51.466;6.806;2023-02-04T13:15:50;22.30;;;5.13;;
16579;SDS011;8402;51.466;6.806;2023-02-04T13:18:22;24.77;;;5.40;;
16579;SDS011;8402;51.466;6.806;2023-02-04T13:20:52;32.03;;;5.73;;
16579;SDS011;8402;51.466;6.806;2023-02-04T13:23:22;32.40;;;5.93;;
16579;SDS011;8402;51.466;6.806;2023-02-04T13:25:52;22.00;;;5.47;;
16579;SDS011;8402;51.466;6.806;2023-02-04T13:28:21;31.37;;;4.73;;
16579;SDS011;8402;51.466;6.806;2023-02-04T13:30:51;19.83;;;4.33;;
16579;SDS011;8402;51.466;6.806;2023-02-04T13:33:24;20.63;;;5.10;;
16579;SDS011;8402;51.466;6.806;2023-02-04T13:35:54;22.23;;;5.07;;
16579;SDS011;8402;51.466;6.806;2023-02-04T13:38:24;24.23;;;3.83;;
16579;SDS011;8402;51.466;6.806;2023-02-04T13:40:54;21.60;;;5.03;;
16579;SDS011;8402;51.466;6.806;2023-02-04T13:43:24;19.73;;;3.83;;
16579;SDS011;8402;51.466;6.806;2023-02-04T13:45:53;27.30;;;4.50;;
16579;SDS011;8402;51.466;6.806;2023-02-04T13:48:26;18.60;;;3.80;;
16579;SDS011;8402;51.466;6.806;2023-02-04T13:50:56;16.50;;;3.50;;
16579;SDS011;8402;51.466;6.806;2023-02-04T13:53:26;17.60;;;4.13;;
16579;SDS011;8402;51.466;6.806;2023-02-04T13:55:56;14.97;;;3.30;;
16579;SDS011;8402;51.466;6.806;2023-02-04T13:58:26;17.33;;;3.47;;
16579;SDS011;8402;51.466;6.806;2023-02-04T14:00:57;23.03;;;3.53;;
16579;SDS011;8402;51.466;6.806;2023-02-04T14:03:29;22.77;;;4.00;;
16579;SDS011;8402;51.466;6.806;2023-02-04T14:05:59;18.37;;;3.63;;
16579;SDS011;8402;51.466;6.806;2023-02-04T14:08:29;16.47;;;4.00;;
16579;SDS011;8402;51.466;6.806;2023-02-04T14:11:00;20.83;;;3.80;;
16579;SDS011;8402;51.466;6.806;2023-02-04T14:13:30;16.20;;;3.60;;
16579;SDS011;8402;51.466;6.806;2023-02-04T14:16:00;13.80;;;3.53;;
16579;SDS011;8402;51.466;6.806;2023-02-04T14:18:33;12.07;;;2.80;;
16579;SDS011;8402;51.466;6.806;2023-02-04T14:21:03;21.47;;;3.17;;
16579;SDS011;8402;51.466;6.806;2023-02-04T14:23:36;15.70;;;3.00;;
16579;SDS011;8402;51.466;6.806;2023-02-04T14:26:06;18.67;;;2.77;;
16579;SDS011;8402;51.466;6.806;2023-02-04T14:28:36;15.70;;;3.03;;
16579;SDS011;8402;51.466;6.806;2023-02-04T14:31:06;16.37;;;3.13;;
16579;SDS011;8402;51.466;6.806;2023-02-04T14:33:38;13.10;;;3.00;;
16579;SDS011;8402;51.466;6.806;2023-02-04T14:36:08;15.33;;;3.63;;
16579;SDS011;8402;51.466;6.806;2023-02-04T14:38:38;15.23;;;3.27;;
16579;SDS011;8402;51.466;6.806;2023-02-04T14:41:08;15.10;;;3.50;;
16579;SDS011;8402;51.466;6.806;2023-02-04T14:43:41;15.20;;;3.23;;
16579;SDS011;8402;51.466;6.806;2023-02-04T14:46:11;17.20;;;3.60;;
16579;SDS011;8402;51.466;6.806;2023-02-04T14:48:44;20.20;;;3.90;;
16579;SDS011;8402;51.466;6.806;2023-02-04T14:51:14;14.13;;;3.53;;
16579;SDS011;8402;51.466;6.806;2023-02-04T14:53:45;20.40;;;4.10;;
16579;SDS011;8402;51.466;6.806;2023-02-04T14:56:15;18.47;;;3.70;;
16579;SDS011;8402;51.466;6.806;2023-02-04T14:58:45;21.73;;;3.70;;
16579;SDS011;8402;51.466;6.806;2023-02-04T15:01:14;18.70;;;3.50;;
16579;SDS011;8402;51.466;6.806;2023-02-04T15:03:48;25.07;;;4.23;;
16579;SDS011;8402;51.466;6.806;2023-02-04T15:06:18;22.10;;;4.23;;
16579;SDS011;8402;51.466;6.806;2023-02-04T15:08:48;19.97;;;3.77;;
16579;SDS011;8402;51.466;6.806;2023-02-04T15:11:17;18.10;;;3.70;;